Terminal Aerodrome Forecast
Issued by NWS Memphis, TN

Home | Current Version | Previous Version | Text Only | Print | Product List | Glossary On
Versions: 1 2 3 4 5 6 7 8 9 10 11 12 13 14 15 16 17 18
160
FTUS44 KMEG 211739
TAFMKL
TAF
KMKL 211739Z 2118/2218 18010KT P6SM BKN250
     FM220600 16007KT 6SM -SHRA VCTS BKN025CB OVC100
      TEMPO 2207/2208 VRB15KT 1SM +TSRA BKN008 OVC015CB
     FM220900 22009KT 2SM BR VCSH OVC004
     FM221400 21008KT P6SM VCSH SCT005 BKN040=

USA.gov is the U.S. government's official web portal to all federal, state and local government web resources and services.